createdAt,value
2022-11-13T00:01:18.406Z,66.56
2022-11-13T00:03:45.388Z,66.31
2022-11-13T00:06:13.305Z,66.38
2022-11-13T00:08:40.109Z,66.18
2022-11-13T00:11:12.696Z,65.89
2022-11-13T00:13:39.467Z,66.03
2022-11-13T00:16:09.732Z,66.90
2022-11-13T00:18:36.959Z,67.00
2022-11-13T00:21:16.856Z,66.45
2022-11-13T00:23:43.683Z,66.97
2022-11-13T00:26:13.920Z,67.01
2022-11-13T00:28:40.421Z,66.69
2022-11-13T00:31:08.984Z,67.06
2022-11-13T00:34:02.374Z,66.46
2022-11-13T00:36:26.548Z,66.51
2022-11-13T00:38:54.080Z,66.18
2022-11-13T00:41:21.079Z,65.89
2022-11-13T00:43:47.552Z,66.76
2022-11-13T00:46:15.589Z,66.67
2022-11-13T00:48:42.095Z,66.73
2022-11-13T00:51:08.675Z,66.39
2022-11-13T00:53:35.312Z,66.13
2022-11-13T00:56:01.843Z,65.64
2022-11-13T00:58:28.797Z,65.90
2022-11-13T01:00:55.926Z,66.34
2022-11-13T01:03:22.390Z,66.08
2022-11-13T01:05:48.950Z,66.56
2022-11-13T01:08:16.379Z,67.64
2022-11-13T01:10:53.116Z,65.84
2022-11-13T01:13:20.698Z,66.20
2022-11-13T01:15:47.243Z,66.34
2022-11-13T01:18:13.891Z,66.88
2022-11-13T01:20:40.640Z,67.08
2022-11-13T01:23:07.179Z,66.90
2022-11-13T01:25:33.926Z,66.50
2022-11-13T01:28:03.746Z,65.46
2022-11-13T01:30:30.281Z,65.93
2022-11-13T01:32:56.720Z,66.02
2022-11-13T01:35:23.265Z,66.19
2022-11-13T01:37:49.711Z,65.01
2022-11-13T01:40:16.508Z,65.88
2022-11-13T01:42:46.131Z,65.92
2022-11-13T01:45:50.299Z,65.93
2022-11-13T01:48:16.780Z,67.74
2022-11-13T01:50:43.314Z,67.57
2022-11-13T01:53:10.104Z,68.07
2022-11-13T01:55:36.836Z,68.30
2022-11-13T01:58:06.050Z,68.11
2022-11-13T02:00:32.585Z,68.33
2022-11-13T02:02:59.138Z,68.43
2022-11-13T02:05:25.630Z,68.57
2022-11-13T02:07:52.276Z,68.24
2022-11-13T02:10:18.817Z,68.34
2022-11-13T02:12:50.235Z,68.11
2022-11-13T02:15:18.744Z,68.45
2022-11-13T02:17:50.298Z,68.05
2022-11-13T02:20:25.444Z,68.26
2022-11-13T02:22:54.659Z,68.30
2022-11-13T02:25:22.176Z,68.57
2022-11-13T02:27:50.512Z,69.08
2022-11-13T02:30:26.486Z,69.72
2022-11-13T02:32:55.048Z,68.81
2022-11-13T02:35:26.563Z,68.94
2022-11-13T02:37:54.839Z,69.04
2022-11-13T02:40:21.484Z,68.64
2022-11-13T02:42:47.939Z,69.17
2022-11-13T02:45:14.606Z,69.79
2022-11-13T02:47:41.101Z,70.27
2022-11-13T02:50:10.220Z,70.49
2022-11-13T02:52:37.000Z,70.25
2022-11-13T02:55:04.458Z,70.30
2022-11-13T02:57:31.088Z,70.24
2022-11-13T02:59:57.770Z,69.75
2022-11-13T03:02:24.305Z,69.71
2022-11-13T03:05:11.396Z,70.76
2022-11-13T03:07:37.324Z,70.47
2022-11-13T03:10:04.209Z,69.90
2022-11-13T03:12:30.833Z,69.95
2022-11-13T03:14:57.361Z,69.58
2022-11-13T03:17:23.828Z,69.27
2022-11-13T03:19:50.438Z,69.34
2022-11-13T03:22:16.970Z,68.81
2022-11-13T03:24:46.816Z,68.87
2022-11-13T03:27:13.268Z,69.19
2022-11-13T03:29:39.770Z,69.67
2022-11-13T03:32:06.405Z,69.44
2022-11-13T03:34:32.875Z,69.62
2022-11-13T03:36:59.360Z,71.19
2022-11-13T03:39:26.311Z,70.90
2022-11-13T03:41:52.809Z,70.49
2022-11-13T03:44:19.308Z,70.04
2022-11-13T03:46:45.845Z,69.73
2022-11-13T03:49:12.467Z,69.66
2022-11-13T03:51:38.975Z,69.58
2022-11-13T03:54:05.518Z,69.46
2022-11-13T03:56:32.092Z,69.10
2022-11-13T03:58:58.574Z,69.00
2022-11-13T04:01:25.146Z,69.21
2022-11-13T04:03:51.663Z,69.15
2022-11-13T04:06:18.165Z,69.36
2022-11-13T04:08:44.623Z,69.51
2022-11-13T04:11:12.898Z,69.93
2022-11-13T04:13:39.609Z,70.38
2022-11-13T04:16:06.316Z,69.98
2022-11-13T04:18:33.107Z,69.70
2022-11-13T04:21:04.938Z,69.20
2022-11-13T04:23:31.592Z,68.92
2022-11-13T04:25:58.333Z,68.83
2022-11-13T04:28:24.975Z,69.60
2022-11-13T04:30:54.586Z,69.85
2022-11-13T04:33:21.409Z,69.67
2022-11-13T04:35:48.504Z,69.27
2022-11-13T04:38:15.607Z,69.19
2022-11-13T04:40:43.100Z,69.23
2022-11-13T04:43:09.774Z,69.11
2022-11-13T04:45:36.953Z,68.84
2022-11-13T04:48:03.721Z,69.03
2022-11-13T04:50:30.340Z,69.00
2022-11-13T04:52:56.899Z,69.13
2022-11-13T04:55:23.441Z,69.15
2022-11-13T04:57:51.703Z,68.99
2022-11-13T05:00:18.512Z,69.16
2022-11-13T05:02:45.015Z,69.62
2022-11-13T05:05:11.506Z,69.75
2022-11-13T05:07:38.077Z,69.81
2022-11-13T05:10:05.553Z,69.76
2022-11-13T05:12:31.985Z,69.45
2022-11-13T05:14:58.517Z,70.27
2022-11-13T05:17:24.959Z,70.18
2022-11-13T05:19:51.536Z,69.78
2022-11-13T05:22:17.985Z,69.43
2022-11-13T05:24:44.596Z,69.72
2022-11-13T05:27:16.010Z,69.98
2022-11-13T05:29:43.759Z,70.61
2022-11-13T05:32:10.297Z,70.57
2022-11-13T05:34:36.989Z,70.46
2022-11-13T05:37:03.475Z,70.47
2022-11-13T05:39:29.964Z,70.96
2022-11-13T05:41:56.468Z,71.09
2022-11-13T05:44:22.965Z,70.68
2022-11-13T05:46:49.478Z,71.11
2022-11-13T05:49:15.967Z,71.50
2022-11-13T05:51:42.478Z,71.84
2022-11-13T05:54:08.937Z,71.61
2022-11-13T05:56:36.704Z,70.88
2022-11-13T05:59:04.432Z,70.72
2022-11-13T06:01:37.007Z,71.07
2022-11-13T06:04:04.583Z,70.49
2022-11-13T06:06:31.704Z,70.80
2022-11-13T06:09:00.646Z,71.62
2022-11-13T06:11:29.241Z,72.41
2022-11-13T06:13:57.222Z,72.35
2022-11-13T06:16:27.033Z,72.13
2022-11-13T06:18:58.942Z,72.38
2022-11-13T06:21:29.756Z,72.95
2022-11-13T06:24:00.624Z,73.26
2022-11-13T06:26:33.174Z,73.43
2022-11-13T06:29:01.485Z,72.99
2022-11-13T06:31:30.993Z,72.69
2022-11-13T06:34:00.429Z,73.14
2022-11-13T06:36:30.109Z,72.93
2022-11-13T06:38:56.807Z,72.93
2022-11-13T06:41:26.014Z,73.06
2022-11-13T06:43:53.317Z,73.34
2022-11-13T06:46:23.451Z,73.07
2022-11-13T06:48:50.694Z,72.93
2022-11-13T06:51:27.160Z,73.47
2022-11-13T06:53:54.106Z,73.83
2022-11-13T06:56:21.467Z,74.30
2022-11-13T06:58:47.981Z,75.18
2022-11-13T07:01:20.902Z,76.13
2022-11-13T07:03:47.710Z,76.42
2022-11-13T07:06:24.444Z,76.77
2022-11-13T07:08:51.754Z,75.88
2022-11-13T07:11:21.172Z,75.71
2022-11-13T07:13:48.292Z,75.25
2022-11-13T07:16:17.803Z,75.66
2022-11-13T07:18:50.376Z,76.11
2022-11-13T07:21:17.254Z,76.61
2022-11-13T07:23:43.821Z,76.58
2022-11-13T07:26:13.736Z,75.69
2022-11-13T07:28:40.567Z,75.97
2022-11-13T07:31:07.539Z,76.08
2022-11-13T07:33:34.582Z,76.35
2022-11-13T07:36:01.350Z,76.27
2022-11-13T07:38:28.168Z,76.09
2022-11-13T07:40:54.949Z,75.92
2022-11-13T07:43:21.491Z,76.42
2022-11-13T07:45:54.281Z,76.11
2022-11-13T07:48:24.497Z,76.59
2022-11-13T07:50:51.476Z,76.84
2022-11-13T07:53:19.282Z,77.08
2022-11-13T07:55:46.326Z,77.03
2022-11-13T07:58:12.891Z,76.71
2022-11-13T08:00:40.158Z,76.81
2022-11-13T08:03:08.925Z,77.32
2022-11-13T08:05:35.530Z,77.37
2022-11-13T08:08:02.078Z,77.04
2022-11-13T08:10:28.905Z,76.42
2022-11-13T08:13:04.154Z,77.52
2022-11-13T08:15:31.713Z,78.05
2022-11-13T08:17:59.891Z,78.70
2022-11-13T08:20:28.023Z,78.95
2022-11-13T08:23:02.269Z,78.67
2022-11-13T08:25:29.956Z,80.98
2022-11-13T08:27:57.340Z,80.07
2022-11-13T08:30:25.901Z,80.64
2022-11-13T08:32:52.828Z,80.87
2022-11-13T08:35:21.371Z,81.34
2022-11-13T08:37:50.630Z,81.84
2022-11-13T08:40:20.022Z,82.07
2022-11-13T08:42:46.523Z,82.37
2022-11-13T08:45:13.132Z,82.39
2022-11-13T08:47:39.659Z,81.95
2022-11-13T08:50:06.787Z,81.74
2022-11-13T08:52:33.351Z,81.38
2022-11-13T08:54:59.879Z,80.88
2022-11-13T08:57:28.898Z,80.24
2022-11-13T08:59:55.404Z,79.61
2022-11-13T09:02:21.924Z,78.46
2022-11-13T09:04:48.392Z,77.32
2022-11-13T09:07:15.087Z,77.73
2022-11-13T09:09:41.563Z,77.93
2022-11-13T09:12:08.217Z,78.88
2022-11-13T09:14:36.144Z,79.79
2022-11-13T09:17:03.035Z,80.06
2022-11-13T09:19:29.542Z,79.45
2022-11-13T09:21:56.003Z,79.64
2022-11-13T09:24:22.539Z,79.75
2022-11-13T09:26:49.035Z,78.99
2022-11-13T09:29:15.550Z,78.94
2022-11-13T09:31:42.247Z,78.67
2022-11-13T09:34:08.974Z,78.21
2022-11-13T09:36:36.139Z,77.45
2022-11-13T09:39:04.345Z,76.83
2022-11-13T09:41:37.649Z,76.08
2022-11-13T09:44:13.554Z,75.59
2022-11-13T09:46:49.354Z,74.39
2022-11-13T09:49:21.621Z,74.67
2022-11-13T09:51:52.813Z,74.97
2022-11-13T09:54:20.318Z,75.24
2022-11-13T09:56:51.245Z,74.94
2022-11-13T10:00:10.592Z,74.92
2022-11-13T10:02:44.404Z,75.13
2022-11-13T10:05:41.191Z,77.40
2022-11-13T10:08:16.578Z,77.54
2022-11-13T10:11:07.072Z,78.13
2022-11-13T10:13:40.414Z,78.34
2022-11-13T10:16:38.484Z,78.30
2022-11-13T10:19:28.252Z,78.50
2022-11-13T10:22:26.512Z,77.90
2022-11-13T10:24:52.210Z,78.83
2022-11-13T10:27:19.014Z,78.65
2022-11-13T10:29:49.048Z,78.58
2022-11-13T10:32:22.102Z,77.94
2022-11-13T10:34:54.285Z,78.75
2022-11-13T10:37:45.112Z,79.39
2022-11-13T10:40:11.809Z,79.80
2022-11-13T10:42:41.225Z,79.93
2022-11-13T10:45:20.155Z,80.71
2022-11-13T10:48:04.087Z,81.49
2022-11-13T10:50:32.528Z,81.72
2022-11-13T10:53:02.431Z,81.22
2022-11-13T10:55:37.468Z,81.73
2022-11-13T10:58:13.091Z,82.23
2022-11-13T11:00:41.469Z,82.40
2022-11-13T11:03:14.004Z,82.42
2022-11-13T11:06:01.091Z,83.14
2022-11-13T11:08:37.136Z,83.85
2022-11-13T11:11:33.409Z,84.77
2022-11-13T11:14:24.361Z,85.81
2022-11-13T11:16:52.754Z,86.46
2022-11-13T11:19:24.915Z,87.49
2022-11-13T11:21:57.349Z,87.92
2022-11-13T11:24:31.037Z,87.90
2022-11-13T11:27:04.910Z,87.87
2022-11-13T11:29:46.324Z,88.24
2022-11-13T11:32:34.202Z,88.52
2022-11-13T11:35:12.088Z,88.66
2022-11-13T11:37:50.396Z,89.22
2022-11-13T11:40:21.940Z,89.31
2022-11-13T11:43:00.870Z,89.74
2022-11-13T11:45:31.583Z,90.12
2022-11-13T11:47:59.483Z,90.64
2022-11-13T11:50:54.597Z,90.94
2022-11-13T11:53:50.329Z,91.59
2022-11-13T11:56:34.632Z,92.18
2022-11-13T11:59:22.998Z,93.00
2022-11-13T12:02:08.178Z,93.29
2022-11-13T12:05:10.400Z,95.58
2022-11-13T12:07:48.948Z,95.79
2022-11-13T12:10:57.040Z,96.20
2022-11-13T12:13:31.547Z,97.51
2022-11-13T12:16:13.120Z,98.46
2022-11-13T12:18:57.646Z,98.82
2022-11-13T12:22:07.083Z,99.46
2022-11-13T12:24:39.412Z,99.60
2022-11-13T12:27:25.765Z,100.00
2022-11-13T12:30:10.913Z,100.00
2022-11-13T12:32:43.391Z,100.00
2022-11-13T12:35:21.039Z,100.00
2022-11-13T12:37:51.593Z,100.00
2022-11-13T12:40:50.583Z,100.00
2022-11-13T12:43:44.735Z,100.00
2022-11-13T12:46:12.657Z,100.00
2022-11-13T12:48:45.040Z,100.00
2022-11-13T12:51:14.609Z,100.00
2022-11-13T12:53:52.309Z,100.00
2022-11-13T12:56:24.774Z,100.00
2022-11-13T12:59:28.652Z,100.00
2022-11-13T13:01:49.342Z,100.00
2022-11-13T13:05:13.324Z,100.00
2022-11-13T13:07:45.900Z,100.00
2022-11-13T13:10:41.195Z,100.00
2022-11-13T13:13:31.711Z,100.00
2022-11-13T13:16:07.349Z,100.00
2022-11-13T13:18:36.787Z,100.00
2022-11-13T13:21:04.215Z,100.00
2022-11-13T13:23:39.791Z,100.00
2022-11-13T13:26:15.377Z,100.00
2022-11-13T13:29:01.051Z,100.00
2022-11-13T13:31:30.430Z,100.00
2022-11-13T13:34:21.212Z,100.00
2022-11-13T13:37:01.461Z,100.00
2022-11-13T13:39:52.282Z,100.00
2022-11-13T13:42:43.678Z,100.00
2022-11-13T13:45:25.936Z,100.00
2022-11-13T13:47:54.887Z,100.00
2022-11-13T13:50:31.632Z,100.00
2022-11-13T13:52:59.659Z,100.00
2022-11-13T13:55:33.960Z,100.00
2022-11-13T13:58:05.683Z,100.00
2022-11-13T14:00:32.770Z,100.00
2022-11-13T14:02:59.342Z,100.00
2022-11-13T14:05:35.014Z,100.00
2022-11-13T14:08:07.387Z,100.00
2022-11-13T14:10:36.273Z,100.00
2022-11-13T14:13:03.945Z,100.00
2022-11-13T14:15:32.655Z,100.00
2022-11-13T14:18:05.426Z,100.00
2022-11-13T14:20:43.803Z,100.00
2022-11-13T14:23:23.031Z,100.00
2022-11-13T14:25:50.256Z,100.00
2022-11-13T14:28:22.702Z,100.00
2022-11-13T14:31:07.949Z,100.00
2022-11-13T14:33:40.694Z,100.00
2022-11-13T14:36:07.506Z,100.00
2022-11-13T14:38:36.929Z,100.00
2022-11-13T14:41:04.480Z,100.00
2022-11-13T14:43:33.146Z,100.00
2022-11-13T14:46:02.079Z,100.00
2022-11-13T14:48:31.380Z,100.00
2022-11-13T14:51:05.987Z,100.00
2022-11-13T14:53:35.666Z,100.00
2022-11-13T14:56:04.862Z,100.00
2022-11-13T14:58:36.737Z,100.00
2022-11-13T15:01:15.526Z,100.00
2022-11-13T15:03:43.766Z,100.00
2022-11-13T15:06:26.993Z,100.00
2022-11-13T15:08:58.241Z,100.00
2022-11-13T15:11:26.500Z,100.00
2022-11-13T15:13:53.110Z,100.00
2022-11-13T15:16:23.569Z,100.00
2022-11-13T15:18:54.216Z,100.00
2022-11-13T15:21:20.932Z,100.00
2022-11-13T15:23:47.432Z,100.00
2022-11-13T15:26:13.950Z,100.00
2022-11-13T15:28:40.467Z,100.00
2022-11-13T15:31:20.657Z,100.00
2022-11-13T15:33:48.046Z,100.00
2022-11-13T15:36:14.865Z,100.00
2022-11-13T15:38:41.434Z,100.00
2022-11-13T15:41:12.806Z,100.00
2022-11-13T15:43:45.018Z,100.00
2022-11-13T15:46:17.351Z,100.00
2022-11-13T15:48:44.971Z,100.00
2022-11-13T15:51:33.727Z,100.00
2022-11-13T15:54:03.711Z,100.00
2022-11-13T15:56:31.485Z,100.00
2022-11-13T15:58:57.988Z,100.00
2022-11-13T16:01:24.620Z,100.00
2022-11-13T16:03:51.707Z,100.00
2022-11-13T16:06:21.563Z,100.00
2022-11-13T16:08:48.606Z,100.00
2022-11-13T16:11:17.009Z,100.00
2022-11-13T16:13:43.780Z,100.00
2022-11-13T16:16:16.792Z,100.00
2022-11-13T16:18:43.293Z,100.00
2022-11-13T16:21:14.159Z,100.00
2022-11-13T16:23:40.755Z,100.00
2022-11-13T16:26:18.035Z,100.00
2022-11-13T16:29:07.650Z,100.00
2022-11-13T16:31:31.209Z,100.00
2022-11-13T16:33:57.640Z,100.00
2022-11-13T16:36:27.247Z,100.00
2022-11-13T16:38:53.712Z,100.00
2022-11-13T16:41:20.218Z,100.00
2022-11-13T16:43:46.676Z,100.00
2022-11-13T16:46:21.036Z,100.00
2022-11-13T16:48:48.014Z,100.00
2022-11-13T16:51:17.106Z,100.00
2022-11-13T16:53:43.920Z,100.00
2022-11-13T16:56:16.274Z,100.00
2022-11-13T16:58:42.962Z,100.00
2022-11-13T17:01:19.959Z,100.00
2022-11-13T17:03:46.516Z,100.00
2022-11-13T17:06:21.010Z,100.00
2022-11-13T17:08:51.816Z,100.00
2022-11-13T17:11:18.889Z,100.00
2022-11-13T17:14:02.162Z,100.00
2022-11-13T17:16:30.437Z,100.00
2022-11-13T17:18:58.133Z,100.00
2022-11-13T17:21:28.328Z,100.00
2022-11-13T17:24:02.472Z,100.00
2022-11-13T17:26:30.975Z,100.00
2022-11-13T17:28:59.866Z,100.00
2022-11-13T17:31:26.768Z,100.00
2022-11-13T17:33:54.094Z,100.00
2022-11-13T17:36:21.392Z,100.00
2022-11-13T17:38:48.364Z,100.00
2022-11-13T17:41:16.496Z,100.00
2022-11-13T17:43:43.418Z,100.00
2022-11-13T17:46:15.386Z,100.00
2022-11-13T17:48:43.109Z,100.00
2022-11-13T17:51:14.792Z,100.00
2022-11-13T17:53:41.649Z,100.00
2022-11-13T17:56:11.663Z,100.00
2022-11-13T17:58:39.903Z,100.00
2022-11-13T18:01:10.286Z,100.00
2022-11-13T18:03:36.901Z,100.00
2022-11-13T18:06:08.443Z,100.00
2022-11-13T18:08:37.626Z,100.00
2022-11-13T18:11:09.622Z,100.00
2022-11-13T18:13:36.278Z,100.00
2022-11-13T18:16:10.287Z,100.00
2022-11-13T18:18:36.947Z,100.00
2022-11-13T18:21:23.406Z,100.00
2022-11-13T18:24:03.957Z,100.00
2022-11-13T18:26:31.644Z,100.00
2022-11-13T18:28:58.680Z,100.00
2022-11-13T18:31:25.349Z,100.00
2022-11-13T18:33:52.760Z,100.00
2022-11-13T18:36:19.651Z,100.00
2022-11-13T18:38:46.441Z,100.00
2022-11-13T18:41:15.757Z,100.00
2022-11-13T18:43:44.242Z,100.00
2022-11-13T18:46:12.235Z,100.00
2022-11-13T18:48:40.404Z,100.00
2022-11-13T18:51:15.568Z,100.00
2022-11-13T18:53:45.506Z,100.00
2022-11-13T18:56:15.575Z,100.00
2022-11-13T18:58:43.757Z,100.00
2022-11-13T19:01:22.349Z,100.00
2022-11-13T19:04:16.150Z,100.00
2022-11-13T19:06:38.307Z,100.00
2022-11-13T19:09:08.073Z,100.00
2022-11-13T19:11:34.564Z,100.00
2022-11-13T19:14:01.040Z,100.00
2022-11-13T19:16:33.172Z,100.00
2022-11-13T19:19:03.579Z,100.00
2022-11-13T19:21:31.834Z,100.00
2022-11-13T19:23:58.698Z,100.00
2022-11-13T19:26:26.129Z,100.00
2022-11-13T19:28:53.938Z,100.00
2022-11-13T19:31:22.912Z,100.00
2022-11-13T19:34:00.544Z,100.00
2022-11-13T19:36:28.631Z,100.00
2022-11-13T19:38:56.330Z,100.00
2022-11-13T19:41:23.930Z,100.00
2022-11-13T19:43:50.512Z,100.00
2022-11-13T19:46:18.501Z,100.00
2022-11-13T19:48:48.611Z,100.00
2022-11-13T19:51:17.976Z,100.00
2022-11-13T19:53:47.581Z,100.00
2022-11-13T19:56:16.389Z,100.00
2022-11-13T19:58:44.476Z,100.00
2022-11-13T20:01:13.742Z,100.00
2022-11-13T20:03:40.380Z,100.00
2022-11-13T20:06:08.064Z,100.00
2022-11-13T20:08:41.138Z,100.00
2022-11-13T20:11:10.972Z,100.00
2022-11-13T20:13:38.766Z,100.00
2022-11-13T20:16:06.765Z,100.00
2022-11-13T20:18:33.320Z,100.00
2022-11-13T20:21:00.367Z,100.00
2022-11-13T20:23:30.479Z,100.00
2022-11-13T20:26:05.300Z,100.00
2022-11-13T20:28:32.299Z,100.00
2022-11-13T20:31:16.469Z,100.00
2022-11-13T20:33:43.569Z,100.00
2022-11-13T20:36:10.457Z,100.00
2022-11-13T20:38:37.435Z,100.00
2022-11-13T20:41:05.045Z,100.00
2022-11-13T20:43:31.534Z,100.00
2022-11-13T20:46:09.201Z,100.00
2022-11-13T20:48:36.284Z,100.00
2022-11-13T20:51:10.868Z,100.00
2022-11-13T20:53:37.593Z,100.00
2022-11-13T20:56:04.552Z,100.00
2022-11-13T20:58:31.789Z,100.00
2022-11-13T21:01:07.001Z,100.00
2022-11-13T21:03:39.901Z,100.00
2022-11-13T21:06:10.004Z,100.00
2022-11-13T21:08:36.614Z,100.00
2022-11-13T21:11:06.015Z,100.00
2022-11-13T21:13:33.249Z,100.00
2022-11-13T21:15:59.787Z,100.00
2022-11-13T21:18:26.596Z,100.00
2022-11-13T21:20:53.332Z,100.00
2022-11-13T21:23:19.833Z,100.00
2022-11-13T21:25:46.358Z,100.00
2022-11-13T21:28:12.849Z,100.00
2022-11-13T21:30:39.315Z,100.00
2022-11-13T21:33:05.796Z,100.00
2022-11-13T21:35:32.324Z,100.00
2022-11-13T21:37:58.892Z,100.00
2022-11-13T21:40:25.363Z,100.00
2022-11-13T21:42:51.871Z,100.00
2022-11-13T21:45:18.341Z,100.00
2022-11-13T21:47:44.854Z,100.00
2022-11-13T21:50:11.384Z,100.00
2022-11-13T21:52:37.912Z,100.00
2022-11-13T21:55:04.696Z,100.00
2022-11-13T21:57:31.377Z,100.00
2022-11-13T21:59:57.863Z,100.00
2022-11-13T22:02:24.464Z,100.00
2022-11-13T22:04:50.991Z,100.00
2022-11-13T22:07:19.433Z,100.00
2022-11-13T22:09:46.462Z,100.00
2022-11-13T22:12:18.009Z,100.00
2022-11-13T22:14:47.428Z,100.00
2022-11-13T22:17:13.866Z,100.00
2022-11-13T22:19:40.429Z,100.00
2022-11-13T22:22:06.907Z,100.00
2022-11-13T22:24:33.458Z,100.00
2022-11-13T22:27:02.872Z,100.00
2022-11-13T22:29:29.380Z,100.00
2022-11-13T22:31:55.845Z,100.00
2022-11-13T22:34:22.346Z,100.00
2022-11-13T22:36:48.807Z,100.00
2022-11-13T22:39:15.385Z,100.00
2022-11-13T22:41:41.828Z,100.00
2022-11-13T22:44:12.462Z,100.00
2022-11-13T22:46:39.110Z,100.00
2022-11-13T22:49:09.308Z,100.00
2022-11-13T22:51:38.464Z,100.00
2022-11-13T22:54:14.921Z,100.00
2022-11-13T22:56:44.291Z,100.00
2022-11-13T22:59:12.281Z,100.00
2022-11-13T23:01:40.281Z,100.00
2022-11-13T23:04:12.010Z,100.00
2022-11-13T23:06:38.616Z,100.00
2022-11-13T23:09:06.448Z,100.00
2022-11-13T23:11:40.313Z,100.00
2022-11-13T23:14:13.719Z,100.00
2022-11-13T23:16:40.282Z,100.00
2022-11-13T23:19:06.981Z,100.00
2022-11-13T23:21:33.678Z,100.00
2022-11-13T23:24:03.763Z,100.00
2022-11-13T23:26:30.318Z,100.00
2022-11-13T23:28:57.182Z,100.00
2022-11-13T23:31:24.386Z,100.00
2022-11-13T23:33:58.280Z,100.00
2022-11-13T23:36:24.814Z,100.00
2022-11-13T23:38:51.267Z,100.00
2022-11-13T23:41:17.768Z,100.00
2022-11-13T23:46:30.683Z,100.00
2022-11-13T23:48:57.255Z,100.00
2022-11-13T23:51:23.747Z,100.00
2022-11-13T23:53:50.183Z,100.00
2022-11-13T23:56:18.603Z,100.00
2022-11-13T23:58:45.081Z,100.00
